Humahuaca, Argentina
Current Conditions -  °F | °C
As of 2:00 PM on Friday 19 Dec 2014 (Local Time) from SASJ Reporting Station
Few Clouds Few Clouds  
Wind Chill: 84°   Ceiling: Unl
Heat Index: 86°   Visibility: 6mi
Dew Point: 64°   Wind: 9mph
Humidity: 51%   Direction: 90°E
Pressure: 29.77"   Gusts: 21mph
Location:  23.2°S, 65.35°W
Report Text: SASJ 191700Z 09008G18KT 360V150 9999FEW030 29/18 Q1008
Loading
Personal Weather Stations






























Interactive Weather Map New forecast layout! Learn more

10-Day Weather Forecast

Advertisements
Track Severe Weather on mobile